createdAt,value
2022-12-14T00:01:35.597Z,-3.98
2022-12-14T00:04:02.309Z,-4.06
2022-12-14T00:06:31.439Z,-4.07
2022-12-14T00:09:00.950Z,-4.10
2022-12-14T00:11:28.635Z,-4.07
2022-12-14T00:14:00.252Z,-4.03
2022-12-14T00:16:30.311Z,-4.03
2022-12-14T00:18:58.742Z,-3.90
2022-12-14T00:21:26.283Z,-3.86
2022-12-14T00:23:53.672Z,-3.95
2022-12-14T00:26:25.925Z,-3.92
2022-12-14T00:28:54.448Z,-3.97
2022-12-14T00:31:22.626Z,-4.03
2022-12-14T00:33:50.497Z,-3.96
2022-12-14T00:36:17.384Z,-3.99
2022-12-14T00:38:44.144Z,-3.95
2022-12-14T00:41:12.518Z,-3.97
2022-12-14T00:43:39.361Z,-4.01
2022-12-14T00:46:06.594Z,-4.05
2022-12-14T00:48:33.879Z,-4.02
2022-12-14T00:51:01.104Z,-4.02
2022-12-14T00:53:27.843Z,-4.07
2022-12-14T00:55:54.711Z,-4.11
2022-12-14T00:58:23.930Z,-4.17
2022-12-14T01:01:02.913Z,-4.16
2022-12-14T01:03:30.076Z,-4.09
2022-12-14T01:05:57.252Z,-4.16
2022-12-14T01:08:24.684Z,-4.24
2022-12-14T01:10:51.976Z,-4.22
2022-12-14T01:13:20.547Z,-4.19
2022-12-14T01:15:47.358Z,-4.19
2022-12-14T01:18:14.489Z,-4.25
2022-12-14T01:20:41.152Z,-4.29
2022-12-14T01:23:07.810Z,-4.39
2022-12-14T01:25:34.523Z,-4.24
2022-12-14T01:28:01.539Z,-4.36
2022-12-14T01:30:28.181Z,-4.30
2022-12-14T01:32:54.867Z,-4.35
2022-12-14T01:35:21.577Z,-4.32
2022-12-14T01:37:49.072Z,-4.37
2022-12-14T01:40:16.503Z,-4.44
2022-12-14T01:42:43.605Z,-4.47
2022-12-14T01:45:24.685Z,-4.45
2022-12-14T01:47:57.579Z,-4.36
2022-12-14T01:50:37.526Z,-4.32
2022-12-14T01:53:12.277Z,-4.32
2022-12-14T01:55:45.177Z,-4.29
2022-12-14T01:58:24.612Z,-4.14
2022-12-14T02:00:57.214Z,-4.23
2022-12-14T02:03:46.052Z,-4.03
2022-12-14T02:06:36.403Z,-4.16
2022-12-14T02:09:06.182Z,-4.10
2022-12-14T02:11:44.342Z,-4.05
2022-12-14T02:14:11.026Z,-4.06
2022-12-14T02:16:38.563Z,-4.13
2022-12-14T02:19:09.337Z,-4.08
2022-12-14T02:22:32.959Z,-4.03
2022-12-14T02:25:21.295Z,-4.19
2022-12-14T02:28:17.329Z,-4.15
2022-12-14T02:30:55.169Z,-4.24
2022-12-14T02:33:55.770Z,-4.21
2022-12-14T02:36:35.174Z,-4.22
2022-12-14T02:39:07.759Z,-4.40
2022-12-14T02:41:47.218Z,-4.29
2022-12-14T02:44:20.900Z,-4.11
2022-12-14T02:46:59.718Z,-4.21
2022-12-14T02:49:49.614Z,-4.25
2022-12-14T02:52:29.820Z,-4.25
2022-12-14T02:55:05.625Z,-4.18
2022-12-14T02:57:50.554Z,-4.19
2022-12-14T03:00:18.685Z,-4.27
2022-12-14T03:02:48.098Z,-4.36
2022-12-14T03:05:15.099Z,-4.29
2022-12-14T03:07:44.333Z,-4.25
2022-12-14T03:10:27.491Z,-4.38
2022-12-14T03:12:59.746Z,-4.35
2022-12-14T03:15:28.496Z,-4.28
2022-12-14T03:18:00.263Z,-4.28
2022-12-14T03:20:32.544Z,-4.32
2022-12-14T03:23:03.609Z,-4.28
2022-12-14T03:25:34.564Z,-4.23
2022-12-14T03:28:37.877Z,-4.19
2022-12-14T03:31:34.679Z,-4.22
2022-12-14T03:34:04.932Z,-4.31
2022-12-14T03:36:50.318Z,-4.22
2022-12-14T03:39:25.829Z,-4.31
2022-12-14T03:42:15.072Z,-4.42
2022-12-14T03:44:52.420Z,-4.37
2022-12-14T03:47:26.029Z,-4.40
2022-12-14T03:50:31.674Z,-4.41
2022-12-14T03:53:28.287Z,-4.32
2022-12-14T03:56:16.536Z,-4.39
2022-12-14T03:59:06.862Z,-4.40
2022-12-14T04:01:59.407Z,-4.36
2022-12-14T04:04:43.769Z,-4.42
2022-12-14T04:07:32.112Z,-4.55
2022-12-14T04:10:26.388Z,-4.69
2022-12-14T04:13:18.195Z,-4.69
2022-12-14T04:16:05.716Z,-4.53
2022-12-14T04:18:59.865Z,-4.55
2022-12-14T04:21:46.308Z,-4.57
2022-12-14T04:24:43.855Z,-4.53
2022-12-14T04:27:29.463Z,-4.65
2022-12-14T04:30:00.781Z,-4.75
2022-12-14T04:32:46.474Z,-4.70
2022-12-14T04:35:29.019Z,-4.60
2022-12-14T04:38:04.506Z,-4.69
2022-12-14T04:40:40.887Z,-4.56
2022-12-14T04:43:18.062Z,-4.69
2022-12-14T04:45:55.589Z,-4.78
2022-12-14T04:48:43.669Z,-4.93
2022-12-14T04:51:36.493Z,-5.03
2022-12-14T04:54:13.489Z,-5.01
2022-12-14T04:56:49.661Z,-5.09
2022-12-14T04:59:16.474Z,-5.10
2022-12-14T05:02:02.022Z,-5.22
2022-12-14T05:04:57.214Z,-5.22
2022-12-14T05:07:49.643Z,-5.28
2022-12-14T05:10:22.689Z,-5.16
2022-12-14T05:13:03.890Z,-5.17
2022-12-14T05:15:35.391Z,-5.16
2022-12-14T05:18:06.856Z,-5.28
2022-12-14T05:20:33.780Z,-5.34
2022-12-14T05:23:00.537Z,-5.19
2022-12-14T05:25:27.289Z,-5.08
2022-12-14T05:27:54.054Z,-5.08
2022-12-14T05:30:20.990Z,-5.12
2022-12-14T05:32:47.877Z,-5.08
2022-12-14T05:35:14.893Z,-5.05
2022-12-14T05:37:42.525Z,-4.93
2022-12-14T05:40:10.554Z,-5.09
2022-12-14T05:42:42.798Z,-4.99
2022-12-14T05:45:14.054Z,-4.94
2022-12-14T05:47:41.162Z,-4.97
2022-12-14T05:50:09.827Z,-5.01
2022-12-14T05:52:36.545Z,-5.20
2022-12-14T05:55:04.706Z,-5.17
2022-12-14T05:57:32.177Z,-5.23
2022-12-14T05:59:58.952Z,-5.27
2022-12-14T06:02:25.888Z,-5.19
2022-12-14T06:04:52.655Z,-5.21
2022-12-14T06:07:23.074Z,-5.25
2022-12-14T06:09:54.177Z,-5.27
2022-12-14T06:12:20.913Z,-5.23
2022-12-14T06:14:47.553Z,-5.33
2022-12-14T06:17:14.311Z,-5.38
2022-12-14T06:19:40.918Z,-5.33
2022-12-14T06:22:07.591Z,-5.19
2022-12-14T06:24:34.301Z,-5.11
2022-12-14T06:27:01.266Z,-5.23
2022-12-14T06:29:28.015Z,-5.22
2022-12-14T06:31:54.649Z,-5.23
2022-12-14T06:34:28.004Z,-5.28
2022-12-14T06:36:55.365Z,-5.28
2022-12-14T06:39:22.113Z,-5.39
2022-12-14T06:41:51.058Z,-5.40
2022-12-14T06:44:17.792Z,-5.48
2022-12-14T06:46:45.178Z,-5.42
2022-12-14T06:49:32.738Z,-5.39
2022-12-14T06:51:59.454Z,-5.54
2022-12-14T06:54:26.185Z,-5.29
2022-12-14T06:56:52.849Z,-5.37
2022-12-14T06:59:19.586Z,-5.44
2022-12-14T07:01:49.979Z,-5.44
2022-12-14T07:04:18.715Z,-5.67
2022-12-14T07:06:45.429Z,-5.63
2022-12-14T07:09:14.140Z,-5.71
2022-12-14T07:11:41.266Z,-5.61
2022-12-14T07:14:08.098Z,-5.62
2022-12-14T07:16:37.081Z,-5.69
2022-12-14T07:19:04.922Z,-5.63
2022-12-14T07:21:32.331Z,-5.59
2022-12-14T07:24:00.678Z,-5.61
2022-12-14T07:26:28.188Z,-5.63
2022-12-14T07:28:55.140Z,-5.69
2022-12-14T07:31:26.932Z,-5.69
2022-12-14T07:33:56.248Z,-5.80
2022-12-14T07:36:24.326Z,-5.82
2022-12-14T07:38:52.074Z,-5.69
2022-12-14T07:41:23.078Z,-5.62
2022-12-14T07:43:51.221Z,-5.74
2022-12-14T07:46:21.394Z,-5.43
2022-12-14T07:48:50.738Z,-5.56
2022-12-14T07:51:20.969Z,-5.59
2022-12-14T07:53:48.002Z,-5.67
2022-12-14T07:56:35.205Z,-5.67
2022-12-14T07:59:03.831Z,-5.73
2022-12-14T08:01:33.736Z,-5.76
2022-12-14T08:04:11.955Z,-5.73
2022-12-14T08:06:39.933Z,-5.74
2022-12-14T08:09:08.453Z,-5.67
2022-12-14T08:11:35.864Z,-5.66
2022-12-14T08:14:08.880Z,-5.60
2022-12-14T08:16:35.636Z,-5.59
2022-12-14T08:19:02.939Z,-5.57
2022-12-14T08:21:30.341Z,-5.60
2022-12-14T08:23:57.787Z,-5.65
2022-12-14T08:26:31.596Z,-5.47
2022-12-14T08:29:02.026Z,-5.38
2022-12-14T08:31:29.178Z,-5.31
2022-12-14T08:33:57.705Z,-5.15
2022-12-14T08:36:28.024Z,-4.98
2022-12-14T08:38:56.653Z,-4.97
2022-12-14T08:41:24.486Z,-4.95
2022-12-14T08:43:52.724Z,-4.92
2022-12-14T08:46:20.160Z,-4.76
2022-12-14T08:48:47.739Z,-4.74
2022-12-14T08:51:14.385Z,-4.83
2022-12-14T08:53:41.124Z,-4.68
2022-12-14T08:56:13.131Z,-4.50
2022-12-14T08:58:40.853Z,-4.33
2022-12-14T09:01:12.293Z,-4.26
2022-12-14T09:03:40.941Z,-4.14
2022-12-14T09:06:10.518Z,-4.11
2022-12-14T09:08:37.595Z,-4.02
2022-12-14T09:11:05.712Z,-3.87
2022-12-14T09:13:33.841Z,-3.89
2022-12-14T09:16:06.710Z,-3.66
2022-12-14T09:18:34.552Z,-3.49
2022-12-14T09:21:02.151Z,-3.40
2022-12-14T09:23:31.138Z,-3.33
2022-12-14T09:26:04.548Z,-3.30
2022-12-14T09:28:32.987Z,-3.19
2022-12-14T09:31:02.276Z,-3.15
2022-12-14T09:33:30.378Z,-3.10
2022-12-14T09:36:05.924Z,-2.84
2022-12-14T09:38:34.422Z,-2.76
2022-12-14T09:41:07.269Z,-2.65
2022-12-14T09:43:42.121Z,-2.52
2022-12-14T09:46:21.040Z,-2.56
2022-12-14T09:48:49.165Z,-2.44
2022-12-14T09:51:19.779Z,-2.36
2022-12-14T09:53:50.396Z,-2.27
2022-12-14T09:56:19.788Z,-2.23
2022-12-14T09:58:59.642Z,-2.14
2022-12-14T10:05:06.241Z,-2.02
2022-12-14T10:07:54.812Z,-1.94
2022-12-14T10:10:26.662Z,-2.02
2022-12-14T10:12:59.264Z,-2.04
2022-12-14T10:15:48.647Z,-1.91
2022-12-14T10:18:58.949Z,-1.98
2022-12-14T10:21:16.135Z,-1.94
2022-12-14T10:23:51.373Z,-1.84
2022-12-14T10:26:20.580Z,-1.79
2022-12-14T10:29:01.674Z,-1.80
2022-12-14T10:32:07.638Z,-1.89
2022-12-14T10:34:35.122Z,-1.65
2022-12-14T10:37:12.166Z,-1.65
2022-12-14T10:40:11.832Z,-1.56
2022-12-14T10:42:59.927Z,-1.48
2022-12-14T10:45:41.092Z,-1.54
2022-12-14T10:48:11.671Z,-1.36
2022-12-14T10:51:01.671Z,-1.34
2022-12-14T10:53:40.782Z,-1.38
2022-12-14T10:56:14.470Z,-1.47
2022-12-14T10:58:41.303Z,-1.35
2022-12-14T11:01:14.666Z,-1.36
2022-12-14T11:03:43.899Z,-1.30
2022-12-14T11:06:19.586Z,-1.20
2022-12-14T11:08:48.985Z,-1.10
2022-12-14T11:11:20.854Z,-1.02
2022-12-14T11:13:52.595Z,-1.09
2022-12-14T11:16:31.774Z,-0.95
2022-12-14T11:19:04.196Z,-1.08
2022-12-14T11:21:38.387Z,-1.09
2022-12-14T11:24:05.921Z,-0.90
2022-12-14T11:26:40.036Z,-0.95
2022-12-14T11:29:18.749Z,-0.90
2022-12-14T11:31:48.057Z,-0.95
2022-12-14T11:34:39.469Z,-0.98
2022-12-14T11:37:23.230Z,-0.86
2022-12-14T11:39:56.321Z,-0.78
2022-12-14T11:42:24.115Z,-0.77
2022-12-14T11:44:51.836Z,-0.82
2022-12-14T11:47:24.432Z,-0.81
2022-12-14T11:49:56.106Z,-0.67
2022-12-14T11:52:27.145Z,-0.65
2022-12-14T11:54:56.820Z,-0.64
2022-12-14T11:57:32.404Z,-0.71
2022-12-14T12:00:04.363Z,-0.68
2022-12-14T12:02:40.843Z,-0.86
2022-12-14T12:05:11.233Z,-0.76
2022-12-14T12:07:42.627Z,-0.73
2022-12-14T12:10:12.266Z,-0.62
2022-12-14T12:12:52.239Z,-0.66
2022-12-14T12:15:35.298Z,-0.56
2022-12-14T12:18:11.256Z,-0.48
2022-12-14T12:20:44.882Z,-0.37
2022-12-14T12:23:19.459Z,-0.51
2022-12-14T12:25:50.531Z,-0.52
2022-12-14T12:28:25.913Z,-0.59
2022-12-14T12:30:59.270Z,-0.60
2022-12-14T12:33:43.557Z,-0.49
2022-12-14T12:36:11.262Z,-0.47
2022-12-14T12:38:51.883Z,-0.43
2022-12-14T12:41:24.489Z,-0.29
2022-12-14T12:44:21.786Z,-0.33
2022-12-14T12:47:23.717Z,-0.22
2022-12-14T12:49:47.332Z,-0.30
2022-12-14T12:52:25.247Z,-0.34
2022-12-14T12:55:05.954Z,-0.39
2022-12-14T12:57:40.530Z,-0.43
2022-12-14T13:00:07.940Z,-0.49
2022-12-14T13:02:50.431Z,-0.52
2022-12-14T13:05:45.895Z,-0.42
2022-12-14T13:08:34.222Z,-0.46
2022-12-14T13:11:25.504Z,-0.55
2022-12-14T13:13:56.808Z,-0.49
2022-12-14T13:16:34.818Z,-0.47
2022-12-14T13:19:50.451Z,-0.56
2022-12-14T13:22:24.864Z,-0.52
2022-12-14T13:24:58.944Z,-0.34
2022-12-14T13:27:46.313Z,-0.32
2022-12-14T13:30:34.801Z,-0.45
2022-12-14T13:33:01.464Z,-0.46
2022-12-14T13:36:05.413Z,-0.60
2022-12-14T13:39:00.054Z,-0.54
2022-12-14T13:41:35.702Z,-0.42
2022-12-14T13:44:08.286Z,-0.44
2022-12-14T13:46:35.395Z,-0.60
2022-12-14T13:49:05.390Z,-0.59
2022-12-14T13:51:39.548Z,-0.62
2022-12-14T13:54:40.101Z,-0.60
2022-12-14T13:57:20.572Z,-0.70
2022-12-14T13:59:55.933Z,-0.79
2022-12-14T14:02:50.953Z,-0.84
2022-12-14T14:05:20.633Z,-0.89
2022-12-14T14:08:03.981Z,-1.01
2022-12-14T14:10:41.746Z,-1.17
2022-12-14T14:13:31.176Z,-1.29
2022-12-14T14:16:27.475Z,-1.45
2022-12-14T14:19:02.883Z,-1.53
2022-12-14T14:21:58.916Z,-1.61
2022-12-14T14:24:27.679Z,-1.80
2022-12-14T14:27:08.676Z,-1.88
2022-12-14T14:29:45.007Z,-1.86
2022-12-14T14:32:41.560Z,-1.96
2022-12-14T14:35:38.355Z,-2.08
2022-12-14T14:38:09.836Z,-2.15
2022-12-14T14:41:15.233Z,-2.31
2022-12-14T14:43:39.789Z,-2.41
2022-12-14T14:46:09.754Z,-2.50
2022-12-14T14:48:49.702Z,-2.52
2022-12-14T14:51:25.181Z,-2.66
2022-12-14T14:55:03.576Z,-2.77
2022-12-14T14:57:36.108Z,-2.88
2022-12-14T15:00:05.996Z,-3.02
2022-12-14T15:02:40.099Z,-3.13
2022-12-14T15:08:04.137Z,-3.31
2022-12-14T15:10:38.743Z,-3.40
2022-12-14T15:13:18.696Z,-3.44
2022-12-14T15:15:49.787Z,-3.50
2022-12-14T15:18:19.298Z,-3.59
2022-12-14T15:21:01.137Z,-3.68
2022-12-14T15:23:36.477Z,-3.76
2022-12-14T15:26:16.212Z,-3.81
2022-12-14T15:28:45.942Z,-3.89
2022-12-14T15:31:13.802Z,-3.93
2022-12-14T15:33:42.996Z,-3.95
2022-12-14T15:36:17.024Z,-4.01
2022-12-14T15:38:55.505Z,-4.11
2022-12-14T15:41:25.289Z,-4.13
2022-12-14T15:43:56.442Z,-4.22
2022-12-14T15:46:33.561Z,-4.26
2022-12-14T15:49:22.163Z,-4.36
2022-12-14T15:51:50.298Z,-4.38
2022-12-14T15:54:24.204Z,-4.44
2022-12-14T15:56:54.598Z,-4.52
2022-12-14T15:59:24.103Z,-4.58
2022-12-14T16:02:18.435Z,-4.62
2022-12-14T16:04:46.125Z,-4.63
2022-12-14T16:07:42.483Z,-4.71
2022-12-14T16:10:33.609Z,-4.56
2022-12-14T16:13:07.008Z,-4.59
2022-12-14T16:15:33.978Z,-4.58
2022-12-14T16:18:02.994Z,-4.66
2022-12-14T16:20:43.701Z,-4.70
2022-12-14T16:23:14.270Z,-4.74
2022-12-14T16:25:56.095Z,-4.80
2022-12-14T16:28:37.310Z,-4.79
2022-12-14T16:31:18.157Z,-4.88
2022-12-14T16:33:45.525Z,-4.88
2022-12-14T16:36:25.597Z,-4.95
2022-12-14T16:39:03.713Z,-5.00
2022-12-14T16:41:41.164Z,-4.99
2022-12-14T16:44:19.819Z,-4.97
2022-12-14T16:47:04.636Z,-4.92
2022-12-14T16:49:42.996Z,-4.94
2022-12-14T16:52:09.650Z,-4.90
2022-12-14T16:54:38.093Z,-4.79
2022-12-14T16:57:27.207Z,-4.64
2022-12-14T17:00:00.409Z,-4.60
2022-12-14T17:02:35.864Z,-4.65
2022-12-14T17:05:06.026Z,-4.69
2022-12-14T17:07:36.388Z,-4.71
2022-12-14T17:10:03.447Z,-4.69
2022-12-14T17:12:30.285Z,-4.58
2022-12-14T17:14:57.495Z,-4.43
2022-12-14T17:17:32.261Z,-4.36
2022-12-14T17:19:59.508Z,-4.18
2022-12-14T17:22:29.746Z,-4.18
2022-12-14T17:24:56.514Z,-4.03
2022-12-14T17:27:26.497Z,-4.09
2022-12-14T17:29:54.863Z,-4.00
2022-12-14T17:32:22.445Z,-4.05
2022-12-14T17:34:49.253Z,-4.07
2022-12-14T17:37:17.321Z,-4.08
2022-12-14T17:39:44.015Z,-4.16
2022-12-14T17:42:16.664Z,-4.24
2022-12-14T17:44:48.639Z,-4.30
2022-12-14T17:47:16.513Z,-4.39
2022-12-14T17:49:43.269Z,-4.42
2022-12-14T17:52:23.687Z,-4.49
2022-12-14T17:54:50.625Z,-4.47
2022-12-14T17:57:20.771Z,-4.27
2022-12-14T17:59:48.351Z,-4.20
2022-12-14T18:02:33.392Z,-4.14
2022-12-14T18:05:00.367Z,-4.25
2022-12-14T18:07:27.164Z,-4.18
2022-12-14T18:09:54.533Z,-4.29
2022-12-14T18:12:23.505Z,-4.24
2022-12-14T18:14:51.122Z,-4.35
2022-12-14T18:17:19.212Z,-4.45
2022-12-14T18:19:47.887Z,-4.45
2022-12-14T18:22:16.749Z,-4.45
2022-12-14T18:24:43.470Z,-4.60
2022-12-14T18:27:13.415Z,-4.68
2022-12-14T18:29:40.255Z,-4.71
2022-12-14T18:32:06.941Z,-4.82
2022-12-14T18:34:33.604Z,-4.93
2022-12-14T18:37:00.312Z,-5.03
2022-12-14T18:39:27.028Z,-5.16
2022-12-14T18:41:53.649Z,-5.09
2022-12-14T18:44:23.815Z,-4.83
2022-12-14T18:46:50.700Z,-4.83
2022-12-14T18:49:17.854Z,-4.82
2022-12-14T18:51:44.715Z,-4.86
2022-12-14T18:54:11.614Z,-4.96
2022-12-14T18:56:41.308Z,-5.12
2022-12-14T18:59:08.015Z,-5.13
2022-12-14T19:01:34.755Z,-5.03
2022-12-14T19:04:01.592Z,-4.71
2022-12-14T19:06:45.331Z,-4.62
2022-12-14T19:09:14.159Z,-4.48
2022-12-14T19:11:44.220Z,-4.68
2022-12-14T19:14:11.253Z,-4.65
2022-12-14T19:16:38.302Z,-4.86
2022-12-14T19:19:05.097Z,-4.96
2022-12-14T19:21:31.910Z,-5.02
2022-12-14T19:23:59.889Z,-5.13
2022-12-14T19:26:28.431Z,-5.08
2022-12-14T19:28:55.323Z,-5.12
2022-12-14T19:31:22.636Z,-5.22
2022-12-14T19:33:49.387Z,-5.32
2022-12-14T19:36:16.091Z,-5.48
2022-12-14T19:38:42.774Z,-5.56
2022-12-14T19:41:13.568Z,-5.45
2022-12-14T19:43:40.280Z,-5.33
2022-12-14T19:46:08.309Z,-5.39
2022-12-14T19:48:35.285Z,-5.43
2022-12-14T19:51:10.928Z,-5.33
2022-12-14T19:53:38.890Z,-5.25
2022-12-14T19:56:06.509Z,-5.43
2022-12-14T19:58:33.350Z,-5.52
2022-12-14T20:01:00.086Z,-5.50
2022-12-14T20:03:27.255Z,-5.26
2022-12-14T20:05:59.386Z,-5.17
2022-12-14T20:08:28.797Z,-5.19
2022-12-14T20:10:55.607Z,-4.88
2022-12-14T20:13:23.672Z,-4.68
2022-12-14T20:15:55.326Z,-4.73
2022-12-14T20:18:22.669Z,-4.70
2022-12-14T20:20:53.497Z,-4.43
2022-12-14T20:23:22.109Z,-4.40
2022-12-14T20:25:49.215Z,-4.42
2022-12-14T20:28:16.101Z,-4.41
2022-12-14T20:30:44.552Z,-4.35
2022-12-14T20:33:11.801Z,-4.25
2022-12-14T20:35:38.598Z,-4.29
2022-12-14T20:38:05.473Z,-4.31
2022-12-14T20:40:38.102Z,-4.36
2022-12-14T20:43:05.398Z,-4.47
2022-12-14T20:45:32.048Z,-4.52
2022-12-14T20:47:58.782Z,-4.57
2022-12-14T20:50:25.403Z,-4.59
2022-12-14T20:52:52.125Z,-4.29
2022-12-14T20:55:18.758Z,-4.01
2022-12-14T20:57:47.541Z,-4.07
2022-12-14T21:00:14.833Z,-4.07
2022-12-14T21:02:42.766Z,-4.04
2022-12-14T21:05:11.381Z,-4.13
2022-12-14T21:07:38.650Z,-4.11
2022-12-14T21:10:06.886Z,-3.94
2022-12-14T21:12:34.053Z,-3.85
2022-12-14T21:15:00.884Z,-3.87
2022-12-14T21:17:29.946Z,-4.00
2022-12-14T21:19:57.704Z,-4.01
2022-12-14T21:22:26.841Z,-3.69
2022-12-14T21:25:02.941Z,-3.76
2022-12-14T21:27:31.299Z,-3.88
2022-12-14T21:29:58.165Z,-4.02
2022-12-14T21:32:25.000Z,-3.93
2022-12-14T21:34:52.249Z,-3.91
2022-12-14T21:37:19.294Z,-3.98
2022-12-14T21:39:53.869Z,-4.13
2022-12-14T21:42:22.028Z,-3.92
2022-12-14T21:44:50.462Z,-3.99
2022-12-14T21:47:20.591Z,-4.13
2022-12-14T21:49:47.379Z,-4.06
2022-12-14T21:52:18.326Z,-4.05
2022-12-14T21:54:45.319Z,-4.04
2022-12-14T21:57:38.227Z,-4.08
2022-12-14T22:00:07.156Z,-3.90
2022-12-14T22:02:34.133Z,-3.85
2022-12-14T22:05:00.981Z,-3.89
2022-12-14T22:07:32.607Z,-3.92
2022-12-14T22:09:59.400Z,-3.81
2022-12-14T22:12:26.293Z,-3.80
2022-12-14T22:14:53.160Z,-3.74
2022-12-14T22:17:19.847Z,-3.82
2022-12-14T22:19:46.660Z,-3.92
2022-12-14T22:22:17.093Z,-3.98
2022-12-14T22:24:45.068Z,-4.01
2022-12-14T22:27:12.666Z,-4.09
2022-12-14T22:29:39.619Z,-3.90
2022-12-14T22:32:07.301Z,-3.89
2022-12-14T22:34:34.161Z,-3.94
2022-12-14T22:37:00.932Z,-3.96
2022-12-14T22:39:27.630Z,-3.84
2022-12-14T22:41:54.333Z,-3.89
2022-12-14T22:44:21.063Z,-3.84
2022-12-14T22:46:49.695Z,-3.83
2022-12-14T22:49:18.459Z,-3.73
2022-12-14T22:51:45.514Z,-3.61
2022-12-14T22:54:20.858Z,-3.64
2022-12-14T22:56:56.825Z,-3.57
2022-12-14T22:59:30.335Z,-3.48
2022-12-14T23:01:59.056Z,-3.40
2022-12-14T23:04:25.997Z,-3.35
2022-12-14T23:06:52.991Z,-3.22
2022-12-14T23:09:38.225Z,-3.04
2022-12-14T23:12:23.713Z,-3.26
2022-12-14T23:15:08.958Z,-3.31
2022-12-14T23:17:54.567Z,-3.26
2022-12-14T23:20:39.807Z,-3.16
2022-12-14T23:23:26.791Z,-3.35
2022-12-14T23:26:12.588Z,-3.32
2022-12-14T23:28:58.278Z,-3.39
2022-12-14T23:31:43.380Z,-3.32
2022-12-14T23:34:28.621Z,-3.45
2022-12-14T23:37:19.747Z,-3.56
2022-12-14T23:40:05.983Z,-3.71
2022-12-14T23:42:51.240Z,-3.65
2022-12-14T23:45:36.422Z,-3.64
2022-12-14T23:48:21.509Z,-3.68
2022-12-14T23:51:06.571Z,-3.71
2022-12-14T23:53:51.779Z,-3.97
2022-12-14T23:56:36.996Z,-4.14
2022-12-14T23:59:26.300Z,-4.10
